Latest Weather Observations for Nullarbor

IDS60801

Issued at 10:31 am CDT Sunday 1 March 2015 (issued every 30 minutes, with the page automatically refreshed every 10 minutes)

About weather observations | Map of weather stations | Latest weather observations for SA | Other Formats
Station Details ID: 018106 Name: NULLARBOR Lat: -31.45 Lon: 130.90 Height: 64.0 m
Data from the previous 72 hours. | See also: Recent months at Nullarbor
Date/Time
CDT
Temp
°C
App
Temp
°C
Dew
Point
Rel
Hum
%
Delta-T
°C
Wind Press
QNH
hPa
Press
MSL
hPa
Rain
since 9 am
mm
Dir
 
Spd
km/h
Gust
km/h
Spd
kts
Gust
kts
01/10:30am 19.9 14.7 8.9 49 5.8 SE 26 35 14 19 1019.3 1019.1 0.0
01/10:00am 19.1 14.4 9.3 53 5.2 SE 24 32 13 17 1019.1 1018.9 0.0
01/09:30am 19.1 14.7 10.4 57 4.7 SE 24 32 13 17 1018.7 1018.5 0.0
01/09:00am 18.5 16.1 10.1 58 4.5 SE 13 19 7 10 1018.5 1018.3 0.2
01/08:30am 18.4 14.1 9.2 55 4.8 SE 22 30 12 16 1018.2 1018.0 0.2
01/08:00am 17.2 14.2 10.8 66 3.4 SSE 17 22 9 12 1017.8 1017.6 0.2
01/07:30am 16.9 14.4 11.2 69 3.1 SSE 15 19 8 10 1017.5 1017.3 0.2
01/07:00am 16.7 14.8 11.8 73 2.7 SE 13 15 7 8 1017.3 1017.1 0.2
01/06:30am 17.3 14.1 12.0 71 2.9 SSE 20 24 11 13 1017.1 1016.9 0.2
01/06:00am 16.2 14.9 13.7 85 1.4 SSE 13 17 7 9 1016.9 1016.7 0.2
01/05:30am 14.4 12.3 12.3 87 1.1 SSE 15 15 8 8 1016.7 1016.5 0.2
01/05:00am 14.6 12.9 12.6 88 1.1 SE 13 15 7 8 1016.4 1016.2 0.2
01/04:30am 14.0 11.7 11.9 87 1.1 SSE 15 17 8 9 1016.1 1015.9 0.2
01/04:00am 14.8 12.7 12.3 85 1.4 SSE 15 17 8 9 1016.1 1015.9 0.2
01/03:30am 15.1 13.4 12.4 84 1.5 SSE 13 15 7 8 1016.1 1015.9 0.2
01/03:00am 16.1 13.8 13.0 82 1.7 SSE 17 20 9 11 1016.3 1016.1 0.2
01/02:30am 16.4 14.1 13.1 81 1.8 SSE 17 19 9 10 1016.6 1016.4 0.2
01/02:00am 16.9 14.8 13.6 81 1.9 SSE 17 22 9 12 1016.9 1016.7 0.2
01/01:30am 17.6 15.0 13.9 79 2.1 SSE 20 26 11 14 1017.2 1017.0 0.2
01/01:00am 18.5 15.9 15.0 80 2.0 SSE 22 32 12 17 1017.2 1017.0 0.2
01/12:30am 18.0 15.6 14.5 80 2.0 SSE 20 24 11 13 1017.5 1017.3 0.2
01/12:00am 17.9 16.1 14.4 80 2.0 SSE 17 20 9 11 1017.7 1017.5 0.2
 
Date/Time
CDT
Temp
°C
App
Temp
°C
Dew
Point
Rel
Hum
%
Delta-T
°C
Wind Press
QNH
hPa
Press
MSL
hPa
Rain
since 9 am
mm
Dir
 
Spd
km/h
Gust
km/h
Spd
kts
Gust
kts
28/11:30pm 18.5 15.4 14.4 77 2.4 SSE 24 32 13 17 1017.6 1017.4 0.2
28/11:00pm 19.3 17.3 15.4 78 2.3 SSE 20 32 11 17 1017.5 1017.3 0.2
28/10:30pm 19.0 16.8 14.9 77 2.4 SSE 20 24 11 13 1017.2 1017.0 0.2
28/10:00pm 19.1 16.9 15.0 77 2.4 SSE 20 26 11 14 1016.8 1016.6 0.2
28/09:30pm 19.2 16.5 14.5 74 2.7 SSE 22 30 12 16 1016.5 1016.3 0.2
28/09:00pm 19.3 15.4 14.3 73 2.9 SSE 28 39 15 21 1016.1 1015.9 0.2
28/08:30pm 19.4 15.5 14.4 73 2.9 SSE 28 39 15 21 1015.8 1015.6 0.2
28/08:00pm 19.7 14.4 14.1 70 3.2 SSE 35 46 19 25 1015.4 1015.2 0.2
28/07:30pm 20.1 14.4 14.2 69 3.4 SSE 37 46 20 25 1015.1 1014.9 0.2
28/07:00pm 20.4 13.7 14.5 69 3.4 S 43 54 23 29 1014.6 1014.3 0.2
28/06:30pm 20.6 13.9 14.7 69 3.5 S 43 56 23 30 1014.2 1013.9 0.2
28/06:00pm 21.0 15.7 16.4 75 2.8 S 39 50 21 27 1013.9 1013.6 0.2
28/05:30pm 21.7 15.6 16.2 71 3.3 S 43 52 23 28 1013.4 1013.1 0.2
28/05:00pm 21.5 17.1 17.5 78 2.5 S 37 46 20 25 1013.1 1012.8 0.2
28/04:30pm 22.1 17.9 17.2 74 3.0 S 35 44 19 24 1013.0 1012.7 0.2
28/04:00pm 22.8 18.3 17.3 71 3.4 S 37 50 20 27 1012.7 1012.4 0.2
28/03:56pm 23.0 18.6 17.5 71 3.4 S 37 50 20 27 1012.8 1012.5 0.2
28/03:30pm 22.6 18.7 17.9 75 2.9 S 35 43 19 23 1012.9 1012.6 0.2
28/03:00pm 22.5 19.7 18.1 76 2.8 S 30 37 16 20 1012.7 1012.4 0.2
28/02:30pm 23.2 19.4 18.1 73 3.2 S 35 48 19 26 1012.5 1012.2 0.2
28/02:00pm 23.1 18.9 18.0 73 3.2 S 37 46 20 25 1012.1 1011.8 0.2
28/01:30pm 24.3 20.5 18.9 72 3.4 SSW 37 46 20 25 1011.8 1011.5 0.2
28/01:19pm 24.0 20.0 18.6 72 3.4 SSW 37 46 20 25 1011.7 1011.4 0.2
28/01:00pm 24.4 20.2 18.8 71 3.6 SSW 39 48 21 26 1011.5 1011.2 0.2
28/12:30pm 24.6 20.6 18.5 69 3.9 SSW 37 50 20 27 1011.2 1010.9 0.2
28/12:00pm 24.5 21.4 19.6 74 3.2 S 35 44 19 24 1011.0 1010.7 0.0
28/11:30am 24.6 20.4 18.1 67 4.1 S 37 46 20 25 1010.4 1010.1 0.0
28/11:00am 23.8 19.7 18.2 71 3.5 S 37 44 20 24 1009.8 1009.5 0.0
28/10:30am 23.4 19.8 18.5 74 3.1 SSW 35 43 19 23 1009.5 1009.2 0.0
28/10:00am 22.4 19.7 19.6 84 1.8 SSW 33 43 18 23 1009.1 1008.8 0.0
28/09:30am 21.7 18.8 18.9 84 1.8 SSW 32 39 17 21 1008.6 1008.3 0.0
28/09:00am 21.5 18.8 19.2 87 1.5 SSW 32 41 17 22 1008.2 1007.9 5.6
28/08:30am 21.3 20.1 20.1 93 0.8 SW 26 33 14 18 1008.0 1007.7 5.6
28/08:00am 20.9 19.9 19.7 93 0.8 SW 24 32 13 17 1007.5 1007.2 5.6
28/07:30am 20.9 20.2 19.6 92 0.8 SW 22 28 12 15 1007.0 1006.7 5.6
28/07:00am 21.0 21.8 19.8 93 0.8 SW 15 17 8 9 1006.6 1006.4 5.6
28/06:52am 21.0 21.4 19.8 93 0.8 SW 17 22 9 12 1006.3 1006.1 5.6
28/06:30am 21.3 19.2 19.0 87 1.5 SW 28 37 15 20 1005.7 1005.5 4.2
28/06:26am 21.9 20.1 18.7 82 2.0 WSW 26 37 14 20 1006.0 1005.8 1.2
28/06:00am 22.8 21.8 17.5 72 3.3 WSW 19 30 10 16 1005.7 1005.5 0.4
28/05:30am 23.2 22.4 17.0 68 3.8 WSW 17 24 9 13 1005.5 1005.3 0.4
28/05:00am 22.9 21.2 16.2 66 4.1 WSW 20 26 11 14 1004.9 1004.7 0.4
28/04:30am 22.7 22.5 14.8 61 4.7 WSW 9 13 5 7 1004.4 1004.2 0.4
28/04:00am 22.4 22.2 14.8 62 4.5 SW 9 13 5 7 1004.3 1004.1 0.4
28/03:30am 22.2 22.0 14.8 63 4.4 SW 9 13 5 7 1004.4 1004.2 0.4
28/03:00am 22.2 21.6 14.6 62 4.5 SSW 11 15 6 8 1004.5 1004.3 0.4
28/02:30am 22.0 21.5 13.9 60 4.7 SW 9 13 5 7 1004.6 1004.4 0.4
28/02:00am 22.1 21.7 14.2 61 4.6 S 9 9 5 5 1004.3 1004.1 0.4
28/01:30am 22.2 21.8 14.1 60 4.8 SE 9 11 5 6 1004.4 1004.2 0.4
28/01:00am 22.3 21.8 13.9 59 4.9 ESE 9 9 5 5 1004.5 1004.3 0.4
28/12:30am 22.6 22.1 13.7 57 5.2 ESE 9 13 5 7 1004.8 1004.6 0.4
28/12:00am 22.8 21.8 13.3 55 5.5 ESE 11 13 6 7 1005.0 1004.8 0.4
 
Date/Time
CDT
Temp
°C
App
Temp
°C
Dew
Point
Rel
Hum
%
Delta-T
°C
Wind Press
QNH
hPa
Press
MSL
hPa
Rain
since 9 am
mm
Dir
 
Spd
km/h
Gust
km/h
Spd
kts
Gust
kts
27/11:30pm 23.2 21.7 13.1 53 5.9 SSE 13 17 7 9 1005.4 1005.2 0.4
27/11:00pm 23.4 22.0 13.3 53 5.9 SE 13 17 7 9 1005.1 1004.9 0.4
27/10:30pm 23.6 22.0 13.8 54 5.8 ESE 15 19 8 10 1004.9 1004.7 0.4
27/10:00pm 23.6 21.4 14.3 56 5.5 SE 19 22 10 12 1004.7 1004.5 0.4
27/09:30pm 23.3 21.8 15.4 61 4.8 SE 17 20 9 11 1004.2 1004.0 0.4
27/09:00pm 23.4 21.6 15.5 61 4.8 SE 19 26 10 14 1003.9 1003.7 0.4
27/08:30pm 25.1 22.4 13.6 49 6.8 SE 20 28 11 15 1003.3 1003.1 0.4
27/08:00pm 27.4 24.2 11.8 38 9.0 SE 20 28 11 15 1003.1 1002.9 0.4
27/07:30pm 28.7 25.0 12.6 37 9.5 SE 24 30 13 16 1002.9 1002.7 0.4
27/07:00pm 31.4 27.9 12.2 30 11.3 SSE 22 26 12 14 1002.9 1002.7 0.4
27/06:30pm 31.9 28.3 11.7 29 11.9 SSE 22 26 12 14 1002.7 1002.5 0.4
27/06:00pm 32.8 28.7 11.3 27 12.6 SSE 24 28 13 15 1002.7 1002.5 0.4
27/05:54pm 33.6 29.5 11.4 25 13.1 S 24 30 13 16 1002.6 1002.4 0.4
27/05:30pm 38.9 34.7 11.1 19 16.7 WNW 24 43 13 23 1002.3 1002.1 0.4
27/05:00pm 38.1 32.7 9.6 18 16.6 NW 28 43 15 23 1002.5 1002.3 0.4
27/04:30pm 37.9 31.2 5.8 14 17.8 NNW 30 43 16 23 1002.9 1002.7 0.4
27/04:00pm 37.3 32.3 6.3 15 17.2 NNW 22 32 12 17 1003.0 1002.8 0.4
27/03:30pm 36.7 31.2 7.7 17 16.4 NNW 26 43 14 23 1003.4 1003.2 0.4
27/03:00pm 36.0 30.4 7.1 17 16.2 NNW 26 35 14 19 1003.9 1003.7 0.4
27/02:30pm 33.6 29.7 5.2 17 15.2 NNE 15 22 8 12 1004.6 1004.4 0.4
27/02:00pm 32.6 29.1 8.8 23 13.4 NNE 17 26 9 14 1005.0 1004.8 0.4
27/01:30pm 31.2 30.0 11.6 30 11.5 NNE 9 15 5 8 1005.4 1005.2 0.4
27/01:00pm 30.1 29.2 12.5 34 10.4 NNE 9 11 5 6 1005.7 1005.5 0.4
27/12:30pm 29.2 29.3 13.8 39 9.3 NE 6 11 3 6 1006.1 1005.9 0.4
27/12:00pm 26.8 28.2 14.5 46 7.4 CALM 0 2 0 1 1006.5 1006.3 0.4
27/11:30am 25.7 26.9 14.8 51 6.6 ESE 2 7 1 4 1007.0 1006.7 0.4
27/11:00am 24.9 24.8 15.0 54 5.9 ESE 9 11 5 6 1007.1 1006.8 0.4
27/10:30am 24.0 24.5 15.0 57 5.4 NE 6 11 3 6 1007.2 1006.9 0.4
27/10:00am 22.4 23.5 15.7 66 4.0 NW 4 7 2 4 1008.0 1007.7 0.4
27/09:30am 21.2 21.4 15.7 71 3.3 NW 9 13 5 7 1008.1 1007.8 0.4
27/09:00am 22.3 20.2 12.3 53 5.7 WSW 15 22 8 12 1008.1 1007.8 0.0
27/08:30am 24.2 20.7 8.6 37 8.4 WNW 17 20 9 11 1008.6 1008.3 0.0
27/08:00am 24.3 20.2 6.1 31 9.4 WNW 17 22 9 12 1008.7 1008.4 0.0
27/07:30am 24.4 19.5 5.2 29 9.7 NW 20 33 11 18 1008.0 1007.7 0.0
27/07:20am 24.5 18.9 5.3 29 9.7 NW 24 39 13 21 1008.5 1008.2 0.0
27/07:00am 23.9 20.9 6.2 32 9.1 ENE 11 13 6 7 1006.6 1006.4 0.0
27/06:30am 23.9 20.8 7.1 34 8.8 NE 13 15 7 8 1005.8 1005.6 0.0
27/06:00am 23.0 20.6 10.1 44 7.1 ENE 13 17 7 9 1005.3 1005.1 0.0
27/05:30am 21.7 20.4 12.5 56 5.2 E 11 13 6 7 1005.1 1004.9 0.0
27/05:00am 21.6 20.5 13.0 58 4.9 ENE 11 13 6 7 1004.9 1004.7 0.0
27/04:30am 21.6 19.9 12.5 56 5.2 ESE 13 15 7 8 1005.1 1004.9 0.0
27/04:00am 22.0 20.2 12.0 53 5.6 ESE 13 17 7 9 1005.3 1005.1 0.0
27/03:30am 22.4 19.2 9.9 45 6.8 SE 17 19 9 10 1005.3 1005.1 0.0
27/03:00am 23.5 19.9 10.6 44 7.2 SE 20 26 11 14 1005.6 1005.4 0.0
27/02:30am 22.9 22.1 11.0 47 6.6 SE 6 11 3 6 1006.7 1006.5 0.0
27/02:00am 23.0 20.5 11.1 47 6.6 SE 15 17 8 9 1006.6 1006.4 0.0
27/01:30am 23.1 20.1 10.5 45 7.0 SE 17 20 9 11 1006.8 1006.6 0.0
27/01:00am 22.7 19.9 11.4 49 6.3 SE 17 20 9 11 1007.3 1007.0 0.0
27/12:30am 21.9 19.9 12.7 56 5.3 SE 15 17 8 9 1007.5 1007.2 0.0
27/12:00am 21.6 19.5 13.5 60 4.7 SE 17 20 9 11 1007.6 1007.3 0.0
 
Date/Time
CDT
Temp
°C
App
Temp
°C
Dew
Point
Rel
Hum
%
Delta-T
°C
Wind Press
QNH
hPa
Press
MSL
hPa
Rain
since 9 am
mm
Dir
 
Spd
km/h
Gust
km/h
Spd
kts
Gust
kts
26/11:30pm 21.8 19.4 13.9 61 4.6 SE 19 22 10 12 1008.0 1007.7 0.0
26/11:00pm 21.9 19.3 13.3 58 5.0 SE 19 22 10 12 1008.1 1007.8 0.0
26/10:30pm 22.6 19.6 12.5 53 5.8 SE 20 24 11 13 1008.1 1007.8 0.0
26/10:00pm 23.1 20.1 12.4 51 6.1 SE 20 24 11 13 1007.9 1007.6 0.0
26/09:30pm 23.5 20.3 13.1 52 6.0 ESE 22 30 12 16 1008.0 1007.7 0.0
26/09:00pm 24.1 20.6 12.1 47 6.9 SE 22 28 12 15 1008.0 1007.7 0.0
26/08:30pm 24.9 20.8 11.5 43 7.6 ESE 24 32 13 17 1007.9 1007.6 0.0
26/08:00pm 26.5 20.8 6.5 28 10.5 SE 26 35 14 19 1007.9 1007.6 0.0
26/07:30pm 28.4 21.8 4.0 21 12.4 SE 28 35 15 19 1007.8 1007.5 0.0
26/07:00pm 29.3 21.9 4.0 20 12.9 SE 32 37 17 20 1007.7 1007.4 0.0
26/06:30pm 29.2 22.9 7.2 25 11.9 SE 30 35 16 19 1007.6 1007.3 0.0
26/06:00pm 31.2 24.0 4.9 19 13.8 SE 32 39 17 21 1007.6 1007.3 0.0
26/05:30pm 31.3 24.2 3.4 17 14.3 SE 30 35 16 19 1007.8 1007.5 0.0
26/05:00pm 33.2 26.6 4.0 16 15.3 SE 28 35 15 19 1008.1 1007.8 0.0
26/04:30pm 33.8 27.4 5.4 17 15.3 SE 28 35 15 19 1008.5 1008.2 0.0
26/04:00pm 35.5 28.9 1.8 12 17.2 SE 26 33 14 18 1008.8 1008.5 0.0
26/03:30pm 35.9 29.3 -0.5 10 18.0 SE 24 32 13 17 1009.1 1008.8 0.0
26/03:00pm 35.2 27.9 0.3 11 17.4 SE 28 37 15 20 1009.4 1009.1 0.0
26/02:30pm 36.9 31.7 0.3 10 18.4 SE 17 33 9 18 1009.7 1009.4 0.0
26/02:00pm 37.4 33.9 5.4 14 17.5 ENE 13 19 7 10 1010.1 1009.8 0.0
26/01:30pm 36.4 31.9 -0.1 10 18.2 ENE 13 24 7 13 1010.5 1010.2 0.0
26/01:00pm 35.6 30.5 -5.5 7 18.7 NNE 13 22 7 12 1011.1 1010.8 0.0
26/12:30pm 34.7 28.6 -8.1 6 18.5 ENE 17 24 9 13 1011.5 1011.2 0.0
26/12:00pm 33.3 26.5 -9.1 6 17.9 NE 20 28 11 15 1011.7 1011.4 0.0
26/11:30am 32.1 25.6 -6.3 8 16.8 NE 20 28 11 15 1011.9 1011.6 0.0
26/11:00am 29.9 22.6 -6.4 9 15.5 NE 24 32 13 17 1012.0 1011.7 0.0

Other Formats:

Comma delimited format used in spreadsheet applications
http://www.bom.gov.au/fwo/IDS60801/IDS60801.94651.axf

JavaScript Object Notation format (JSON) in row-major order
http://www.bom.gov.au/fwo/IDS60801/IDS60801.94651.json